createdAt,value
2022-09-21T00:01:28.029Z,4.15
2022-09-21T00:03:57.411Z,4.63
2022-09-21T00:06:28.476Z,4.32
2022-09-21T00:08:56.932Z,4.43
2022-09-21T00:11:27.988Z,3.88
2022-09-21T00:13:58.889Z,4.03
2022-09-21T00:16:26.898Z,3.80
2022-09-21T00:18:55.402Z,3.60
2022-09-21T00:21:24.423Z,4.00
2022-09-21T00:23:54.290Z,3.95
2022-09-21T00:26:24.926Z,3.80
2022-09-21T00:28:55.379Z,3.42
2022-09-21T00:31:24.283Z,4.30
2022-09-21T00:33:52.733Z,4.50
2022-09-21T00:36:22.442Z,4.82
2022-09-21T00:38:53.873Z,4.97
2022-09-21T00:41:22.427Z,4.93
2022-09-21T00:44:08.841Z,5.07
2022-09-21T00:46:40.133Z,4.65
2022-09-21T00:49:08.563Z,4.82
2022-09-21T00:51:37.486Z,4.72
2022-09-21T00:54:12.237Z,4.75
2022-09-21T00:56:40.447Z,4.50
2022-09-21T00:59:10.667Z,4.28
2022-09-21T01:01:38.670Z,4.72
2022-09-21T01:04:08.730Z,4.22
2022-09-21T01:06:39.622Z,4.38
2022-09-21T01:09:10.164Z,4.65
2022-09-21T01:11:48.327Z,4.22
2022-09-21T01:14:44.041Z,4.22
2022-09-21T01:17:19.579Z,4.47
2022-09-21T01:20:10.917Z,4.45
2022-09-21T01:22:53.306Z,4.43
2022-09-21T01:25:33.017Z,3.95
2022-09-21T01:28:10.011Z,4.38
2022-09-21T01:30:43.730Z,4.28
2022-09-21T01:33:20.366Z,4.38
2022-09-21T01:35:50.490Z,4.45
2022-09-21T01:38:24.098Z,4.32
2022-09-21T01:40:56.917Z,4.80
2022-09-21T01:43:28.456Z,4.47
2022-09-21T01:46:02.122Z,4.93
2022-09-21T01:48:35.829Z,4.55
2022-09-21T01:51:08.281Z,4.43
2022-09-21T01:53:41.310Z,3.90
2022-09-21T01:56:14.584Z,3.90
2022-09-21T01:58:48.503Z,4.07
2022-09-21T02:01:22.221Z,3.33
2022-09-21T02:03:54.234Z,3.50
2022-09-21T02:06:22.583Z,3.63
2022-09-21T02:08:50.631Z,3.72
2022-09-21T02:11:18.574Z,3.42
2022-09-21T02:13:49.663Z,3.40
2022-09-21T02:16:36.196Z,3.38
2022-09-21T02:19:12.871Z,3.85
2022-09-21T02:21:51.395Z,3.70
2022-09-21T02:24:26.936Z,4.22
2022-09-21T02:27:00.459Z,3.67
2022-09-21T02:29:36.529Z,3.83
2022-09-21T02:32:12.720Z,4.05
2022-09-21T02:34:46.494Z,4.18
2022-09-21T02:37:22.243Z,3.83
2022-09-21T02:39:59.843Z,3.97
2022-09-21T02:42:32.116Z,3.70
2022-09-21T02:45:08.089Z,4.68
2022-09-21T02:47:42.897Z,4.32
2022-09-21T02:50:15.896Z,4.50
2022-09-21T02:52:45.471Z,4.90
2022-09-21T02:55:16.023Z,4.45
2022-09-21T02:57:44.702Z,3.95
2022-09-21T03:00:13.642Z,3.88
2022-09-21T03:02:45.552Z,3.60
2022-09-21T03:05:15.111Z,3.72
2022-09-21T03:07:43.253Z,4.20
2022-09-21T03:10:11.775Z,4.30
2022-09-21T03:12:39.741Z,3.60
2022-09-21T03:15:08.449Z,4.20
2022-09-21T03:17:36.428Z,4.15
2022-09-21T03:20:06.468Z,4.47
2022-09-21T03:22:34.447Z,4.25
2022-09-21T03:25:02.394Z,4.75
2022-09-21T03:27:30.355Z,4.68
2022-09-21T03:30:01.965Z,5.18
2022-09-21T03:32:30.434Z,5.88
2022-09-21T03:34:58.427Z,5.60
2022-09-21T03:37:27.822Z,5.30
2022-09-21T03:39:55.772Z,5.32
2022-09-21T03:42:23.688Z,5.50
2022-09-21T03:44:51.643Z,5.90
2022-09-21T03:47:20.649Z,5.15
2022-09-21T03:49:48.698Z,5.05
2022-09-21T03:52:16.605Z,4.80
2022-09-21T03:54:45.926Z,4.18
2022-09-21T03:57:13.851Z,3.80
2022-09-21T03:59:42.099Z,4.47
2022-09-21T04:02:10.049Z,4.80
2022-09-21T04:04:37.975Z,5.72
2022-09-21T04:07:06.009Z,5.95
2022-09-21T04:09:33.971Z,6.43
2022-09-21T04:12:03.606Z,6.18
2022-09-21T04:14:31.497Z,5.75
2022-09-21T04:16:59.454Z,5.07
2022-09-21T04:19:27.497Z,5.25
2022-09-21T04:21:56.147Z,5.95
2022-09-21T04:24:24.502Z,6.25
2022-09-21T04:26:52.489Z,6.05
2022-09-21T04:29:21.891Z,6.95
2022-09-21T04:31:49.885Z,10.57
2022-09-21T04:34:17.900Z,8.65
2022-09-21T04:36:45.934Z,6.80
2022-09-21T04:39:13.945Z,5.68
2022-09-21T04:41:42.186Z,5.30
2022-09-21T04:44:10.172Z,24.50
2022-09-21T04:46:39.550Z,6.53
2022-09-21T04:49:08.774Z,6.60
2022-09-21T04:51:36.829Z,6.82
2022-09-21T04:54:05.018Z,6.80
2022-09-21T04:56:33.058Z,9.63
2022-09-21T04:59:01.368Z,8.43
2022-09-21T05:01:29.520Z,11.20
2022-09-21T05:04:02.458Z,9.57
2022-09-21T05:06:31.029Z,7.90
2022-09-21T05:09:16.462Z,6.82
2022-09-21T05:11:44.515Z,5.70
2022-09-21T05:14:15.117Z,5.85
2022-09-21T05:16:44.758Z,5.50
2022-09-21T05:19:14.128Z,6.00
2022-09-21T05:21:45.205Z,6.03
2022-09-21T05:24:13.200Z,5.53
2022-09-21T05:26:41.163Z,7.00
2022-09-21T05:29:10.348Z,8.45
2022-09-21T05:31:43.410Z,8.65
2022-09-21T05:34:30.988Z,11.02
2022-09-21T05:37:08.120Z,11.10
2022-09-21T05:39:36.714Z,9.93
2022-09-21T05:42:05.628Z,9.85
2022-09-21T05:44:34.379Z,9.45
2022-09-21T05:47:13.521Z,8.52
2022-09-21T05:50:15.975Z,8.20
2022-09-21T05:52:50.404Z,7.60
2022-09-21T05:55:29.846Z,8.07
2022-09-21T05:58:07.561Z,9.77
2022-09-21T06:01:03.665Z,9.52
2022-09-21T06:03:39.730Z,10.30
2022-09-21T06:06:12.486Z,11.48
2022-09-21T06:08:42.311Z,12.52
2022-09-21T06:11:16.002Z,12.77
2022-09-21T06:13:45.765Z,10.70
2022-09-21T06:16:14.338Z,9.30
2022-09-21T06:18:43.537Z,8.30
2022-09-21T06:21:14.871Z,8.73
2022-09-21T06:23:43.330Z,8.55
2022-09-21T06:26:11.610Z,8.48
2022-09-21T06:28:45.732Z,8.50
2022-09-21T06:31:17.615Z,9.00
2022-09-21T06:33:54.372Z,8.20
2022-09-21T06:36:43.028Z,7.25
2022-09-21T06:39:43.988Z,7.28
2022-09-21T06:42:51.241Z,7.00
2022-09-21T07:16:13.383Z,4.60
2022-09-21T07:19:10.170Z,4.50
2022-09-21T07:22:30.186Z,4.45
2022-09-21T07:25:24.197Z,4.38
2022-09-21T07:31:30.158Z,4.72
2022-09-21T07:34:22.207Z,4.90
2022-09-21T07:36:50.500Z,5.20
2022-09-21T07:39:18.952Z,4.88
2022-09-21T07:41:48.921Z,4.57
2022-09-21T07:44:16.976Z,4.55
2022-09-21T07:46:48.386Z,4.40
2022-09-21T07:49:16.625Z,4.68
2022-09-21T07:51:44.904Z,4.32
2022-09-21T07:54:15.334Z,4.43
2022-09-21T07:57:00.574Z,4.78
2022-09-21T07:59:29.084Z,3.72
2022-09-21T08:01:58.684Z,3.30
2022-09-21T08:04:28.922Z,3.30
2022-09-21T08:06:58.607Z,2.92
2022-09-21T08:10:00.089Z,2.72
2022-09-21T08:12:29.721Z,2.80
2022-09-21T08:15:05.054Z,2.58
2022-09-21T08:17:44.245Z,2.97
2022-09-21T08:20:13.962Z,3.00
2022-09-21T08:22:47.168Z,3.15
2022-09-21T08:25:16.868Z,3.85
2022-09-21T08:27:46.297Z,3.33
2022-09-21T08:30:14.624Z,3.30
2022-09-21T08:32:51.595Z,2.90
2022-09-21T08:35:22.855Z,3.28
2022-09-21T08:37:58.050Z,3.15
2022-09-21T08:40:28.198Z,3.08
2022-09-21T08:43:07.808Z,3.45
2022-09-21T08:45:46.922Z,3.00
2022-09-21T08:48:28.283Z,3.10
2022-09-21T08:51:09.338Z,3.10
2022-09-21T08:53:39.911Z,2.83
2022-09-21T08:56:10.051Z,3.40
2022-09-21T08:58:43.483Z,3.00
2022-09-21T09:01:38.642Z,2.67
2022-09-21T09:04:33.623Z,2.75
2022-09-21T09:07:40.583Z,3.30
2022-09-21T09:10:21.024Z,3.00
2022-09-21T09:13:02.949Z,2.90
2022-09-21T09:15:46.812Z,2.70
2022-09-21T09:18:22.227Z,3.00
2022-09-21T09:21:02.912Z,2.60
2022-09-21T09:23:38.395Z,2.50
2022-09-21T09:26:12.070Z,2.70
2022-09-21T09:28:50.102Z,3.10
2022-09-21T09:31:47.432Z,2.80
2022-09-21T09:34:30.570Z,2.85
2022-09-21T09:37:27.771Z,2.55
2022-09-21T09:40:23.612Z,2.78
2022-09-21T09:43:04.775Z,3.03
2022-09-21T09:45:54.408Z,3.10
2022-09-21T09:49:21.398Z,2.65
2022-09-21T09:51:56.918Z,3.33
2022-09-21T09:54:58.743Z,3.50
2022-09-21T09:57:38.370Z,2.60
2022-09-21T10:00:29.005Z,3.40
2022-09-21T10:03:00.862Z,3.25
2022-09-21T10:05:38.725Z,2.95
2022-09-21T10:08:42.054Z,2.75
2022-09-21T10:11:19.120Z,3.17
2022-09-21T10:13:49.052Z,3.35
2022-09-21T10:16:24.226Z,2.80
2022-09-21T10:18:59.326Z,3.42
2022-09-21T10:21:34.424Z,3.08
2022-09-21T10:24:45.452Z,1.95
2022-09-21T10:27:25.582Z,2.30
2022-09-21T10:29:53.680Z,1.80
2022-09-21T10:32:27.252Z,1.70
2022-09-21T10:35:28.226Z,1.27
2022-09-21T10:38:24.603Z,1.10
2022-09-21T10:45:17.792Z,1.08
2022-09-21T10:47:52.486Z,0.80
2022-09-21T10:50:34.476Z,0.80
2022-09-21T10:53:24.474Z,0.77
2022-09-21T10:57:02.533Z,1.05
2022-09-21T11:17:12.888Z,0.90
2022-09-21T11:18:03.913Z,0.70
2022-09-21T11:20:40.660Z,0.75
2022-09-21T11:23:20.248Z,0.90
2022-09-21T11:25:55.965Z,0.70
2022-09-21T11:28:30.717Z,0.90
2022-09-21T11:31:22.188Z,1.00
2022-09-21T11:34:05.783Z,0.90
2022-09-21T11:36:45.004Z,0.85
2022-09-21T11:39:31.373Z,0.73
2022-09-21T11:42:16.176Z,0.65
2022-09-21T11:44:55.942Z,0.70
2022-09-21T11:47:44.746Z,0.80
2022-09-21T11:50:33.102Z,0.80
2022-09-21T11:53:16.255Z,0.68
2022-09-21T11:56:15.182Z,0.95
2022-09-21T11:59:10.613Z,0.73
2022-09-21T12:13:42.415Z,1.00
2022-09-21T12:23:22.408Z,0.70
2022-09-21T12:25:57.365Z,0.80
2022-09-21T12:28:38.697Z,0.70
2022-09-21T12:31:17.296Z,0.80
2022-09-21T12:33:56.933Z,0.65
2022-09-21T12:36:32.371Z,0.60
2022-09-21T12:39:14.895Z,0.70
2022-09-21T12:41:49.957Z,0.70
2022-09-21T12:44:28.636Z,0.80
2022-09-21T12:47:09.586Z,0.80
2022-09-21T12:49:44.664Z,0.90
2022-09-21T12:52:21.377Z,0.80
2022-09-21T12:55:02.936Z,0.75
2022-09-21T12:58:14.099Z,0.85
2022-09-21T13:00:50.771Z,0.60
2022-09-21T13:03:42.969Z,1.02
2022-09-21T13:06:37.941Z,0.70
2022-09-21T13:09:10.087Z,0.68
2022-09-21T13:11:54.604Z,0.77
2022-09-21T13:14:24.321Z,0.70
2022-09-21T13:17:02.790Z,0.77
2022-09-21T13:19:33.857Z,0.80
2022-09-21T13:22:37.553Z,1.73
2022-09-21T13:25:29.789Z,1.52
2022-09-21T13:28:04.817Z,1.17
2022-09-21T13:30:42.561Z,0.85
2022-09-21T13:33:42.255Z,0.70
2022-09-21T13:36:35.222Z,0.88
2022-09-21T13:39:29.235Z,1.05
2022-09-21T13:42:03.116Z,0.80
2022-09-21T13:44:46.279Z,1.05
2022-09-21T13:47:14.728Z,1.13
2022-09-21T13:49:54.023Z,0.80
2022-09-21T13:52:34.566Z,0.80
2022-09-21T13:55:05.502Z,1.00
2022-09-21T13:57:39.083Z,0.80
2022-09-21T14:00:39.095Z,0.90
2022-09-21T14:03:24.338Z,0.90
2022-09-21T14:06:17.265Z,0.90
2022-09-21T14:13:13.831Z,1.10
2022-09-21T14:16:20.845Z,0.93
2022-09-21T14:18:49.270Z,0.90
2022-09-21T14:21:28.109Z,1.05
2022-09-21T14:24:35.848Z,0.93
2022-09-21T14:27:14.940Z,0.90
2022-09-21T14:29:52.090Z,0.80
2022-09-21T14:32:26.647Z,0.80
2022-09-21T14:35:04.368Z,0.90
2022-09-21T14:37:51.738Z,1.00
2022-09-21T14:41:04.027Z,0.80
2022-09-21T14:52:32.409Z,0.70
2022-09-21T15:06:59.738Z,0.98
2022-09-21T15:30:34.609Z,1.10
2022-09-21T15:33:24.243Z,1.00
2022-09-21T15:36:01.769Z,1.15
2022-09-21T15:38:32.395Z,1.00
2022-09-21T15:41:04.336Z,1.10
2022-09-21T15:43:38.725Z,1.00
2022-09-21T15:46:10.620Z,0.90
2022-09-21T15:48:42.457Z,1.00
2022-09-21T15:51:17.096Z,1.02
2022-09-21T15:53:55.684Z,1.00
2022-09-21T15:56:42.013Z,1.00
2022-09-21T15:59:25.247Z,0.88
2022-09-21T16:01:59.570Z,0.90
2022-09-21T16:04:30.048Z,0.98
2022-09-21T16:07:09.397Z,1.05
2022-09-21T16:09:45.020Z,1.00
2022-09-21T16:12:43.693Z,1.00
2022-09-21T16:15:25.408Z,1.08
2022-09-21T16:18:01.475Z,0.88
2022-09-21T16:20:51.766Z,0.90
2022-09-21T16:23:24.110Z,1.02
2022-09-21T16:26:01.643Z,0.90
2022-09-21T16:28:36.427Z,1.17
2022-09-21T16:31:23.672Z,1.30
2022-09-21T16:34:20.359Z,1.00
2022-09-21T16:36:51.821Z,0.90
2022-09-21T16:39:21.069Z,1.13
2022-09-21T16:41:53.746Z,0.90
2022-09-21T16:44:25.777Z,1.05
2022-09-21T16:46:58.246Z,0.77
2022-09-21T16:49:31.378Z,0.90
2022-09-21T16:52:04.114Z,1.00
2022-09-21T16:54:34.633Z,1.27
2022-09-21T16:57:04.737Z,1.17
2022-09-21T16:59:33.287Z,1.27
2022-09-21T17:02:04.329Z,1.10
2022-09-21T17:04:35.920Z,1.10
2022-09-21T17:07:06.275Z,2.63
2022-09-21T17:09:36.159Z,1.40
2022-09-21T17:12:17.729Z,1.30
2022-09-21T17:14:47.485Z,1.23
2022-09-21T17:17:19.306Z,1.10
2022-09-21T17:19:49.974Z,0.95
2022-09-21T17:22:20.528Z,1.00
2022-09-21T17:24:55.238Z,1.27
2022-09-21T17:27:31.862Z,1.10
2022-09-21T17:30:02.679Z,1.10
2022-09-21T17:32:36.476Z,1.20
2022-09-21T17:47:23.388Z,1.30
2022-09-21T17:58:04.950Z,1.13
2022-09-21T18:01:02.491Z,1.17
2022-09-21T18:17:20.856Z,2.97
2022-09-21T19:12:46.095Z,3.40
2022-09-21T19:19:20.638Z,2.92
2022-09-21T19:22:03.008Z,1.33
2022-09-21T19:27:56.926Z,1.55
2022-09-21T19:30:42.270Z,1.75
2022-09-21T19:33:48.809Z,1.85
2022-09-21T19:37:08.117Z,1.67
2022-09-21T19:39:44.658Z,1.50
2022-09-21T19:42:30.341Z,1.35
2022-09-21T19:45:27.761Z,1.77
2022-09-21T19:51:58.266Z,1.35
2022-09-21T19:56:01.086Z,1.63
2022-09-21T20:09:50.176Z,1.52
2022-09-21T20:12:48.485Z,1.25
2022-09-21T20:15:55.136Z,1.48
2022-09-21T20:19:06.073Z,1.30
2022-09-21T20:26:10.787Z,1.20
2022-09-21T20:28:55.905Z,1.40
2022-09-21T20:31:30.096Z,1.40
2022-09-21T20:34:06.537Z,1.67
2022-09-21T20:36:35.679Z,1.55
2022-09-21T20:39:13.544Z,1.27
2022-09-21T20:41:47.269Z,1.17
2022-09-21T20:44:53.174Z,1.23
2022-09-21T20:47:42.191Z,1.35
2022-09-21T20:50:19.931Z,1.30
2022-09-21T20:52:50.119Z,1.00
2022-09-21T20:55:22.907Z,1.20
2022-09-21T20:57:57.469Z,1.23
2022-09-21T21:00:36.967Z,1.25
2022-09-21T21:03:21.226Z,1.15
2022-09-21T21:05:49.895Z,1.35
2022-09-21T21:08:21.843Z,1.20
2022-09-21T21:10:53.055Z,1.50
2022-09-21T21:13:28.469Z,1.50
2022-09-21T21:16:01.819Z,1.30
2022-09-21T21:18:30.325Z,1.35
2022-09-21T21:21:05.536Z,1.40
2022-09-21T21:23:58.646Z,1.30
2022-09-21T21:26:50.204Z,1.50
2022-09-21T21:29:15.691Z,1.25
2022-09-21T21:31:48.188Z,1.42
2022-09-21T21:34:19.586Z,1.60
2022-09-21T21:36:51.372Z,1.20
2022-09-21T21:39:25.138Z,1.30
2022-09-21T21:41:56.746Z,1.60
2022-09-21T21:44:27.743Z,1.45
2022-09-21T21:47:06.190Z,1.35
2022-09-21T21:49:46.776Z,1.40
2022-09-21T21:52:21.185Z,1.55
2022-09-21T21:54:54.487Z,1.30
2022-09-21T21:57:27.192Z,1.30
2022-09-21T22:00:06.695Z,1.23
2022-09-21T22:02:55.437Z,1.50
2022-09-21T22:05:27.223Z,0.98
2022-09-21T22:08:00.913Z,1.40
2022-09-21T22:10:37.913Z,1.42
2022-09-21T22:13:09.790Z,1.50
2022-09-21T22:15:50.735Z,1.60
2022-09-21T22:18:28.035Z,1.40
2022-09-21T22:21:07.465Z,1.55
2022-09-21T22:23:38.573Z,1.92
2022-09-21T22:26:19.221Z,1.40
2022-09-21T22:28:52.402Z,1.67
2022-09-21T22:31:22.551Z,1.60
2022-09-21T22:34:00.241Z,1.60
2022-09-21T22:36:31.384Z,1.33
2022-09-21T22:39:00.357Z,1.48
2022-09-21T22:41:30.852Z,1.30
2022-09-21T22:44:00.630Z,2.10
2022-09-21T22:46:31.283Z,1.50
2022-09-21T22:49:04.149Z,1.48
2022-09-21T22:51:32.748Z,1.77
2022-09-21T22:54:07.327Z,1.50
2022-09-21T22:56:36.640Z,1.58
2022-09-21T22:59:11.061Z,1.58
2022-09-21T23:01:41.431Z,1.52
2022-09-21T23:04:15.773Z,1.40
2022-09-21T23:06:50.017Z,1.65
2022-09-21T23:09:30.409Z,1.70
2022-09-21T23:12:07.063Z,1.50
2022-09-21T23:14:35.595Z,1.50
2022-09-21T23:17:05.755Z,1.58
2022-09-21T23:19:35.476Z,1.63
2022-09-21T23:22:03.940Z,1.38
2022-09-21T23:24:34.837Z,1.58
2022-09-21T23:27:05.051Z,1.63
2022-09-21T23:29:35.537Z,1.48
2022-09-21T23:32:04.294Z,1.58
2022-09-21T23:34:40.338Z,1.50
2022-09-21T23:37:08.793Z,1.50
2022-09-21T23:39:39.422Z,2.13
2022-09-21T23:42:09.021Z,1.88
2022-09-21T23:44:39.019Z,1.52
2022-09-21T23:47:12.853Z,1.70
2022-09-21T23:49:51.697Z,1.88
2022-09-21T23:52:25.335Z,1.65
2022-09-21T23:54:53.586Z,1.90
2022-09-21T23:57:21.766Z,2.00
2022-09-21T23:59:52.658Z,1.80
